sensor_id;sensor_type;location;lat;lon;timestamp;P1;durP1;ratioP1;P2;durP2;ratioP2
54865;SDS011;40754;52.094;4.328;2022-10-23T00:00:35;23.08;;;9.60;;
54865;SDS011;40754;52.094;4.328;2022-10-23T00:03:00;19.80;;;8.95;;
54865;SDS011;40754;52.094;4.328;2022-10-23T00:05:26;21.10;;;9.43;;
54865;SDS011;40754;52.094;4.328;2022-10-23T00:07:53;17.88;;;8.68;;
54865;SDS011;40754;52.094;4.328;2022-10-23T00:10:20;18.02;;;9.13;;
54865;SDS011;40754;52.094;4.328;2022-10-23T00:12:47;19.50;;;9.20;;
54865;SDS011;40754;52.094;4.328;2022-10-23T00:15:13;25.17;;;10.20;;
54865;SDS011;40754;52.094;4.328;2022-10-23T00:17:40;23.35;;;10.57;;
54865;SDS011;40754;52.094;4.328;2022-10-23T00:20:06;19.00;;;9.48;;
54865;SDS011;40754;52.094;4.328;2022-10-23T00:22:32;16.70;;;9.23;;
54865;SDS011;40754;52.094;4.328;2022-10-23T00:24:57;19.17;;;9.88;;
54865;SDS011;40754;52.094;4.328;2022-10-23T00:27:23;22.73;;;8.90;;
54865;SDS011;40754;52.094;4.328;2022-10-23T00:29:49;31.50;;;9.93;;
54865;SDS011;40754;52.094;4.328;2022-10-23T00:32:14;25.15;;;9.95;;
54865;SDS011;40754;52.094;4.328;2022-10-23T00:34:40;16.60;;;9.82;;
54865;SDS011;40754;52.094;4.328;2022-10-23T00:37:05;22.10;;;9.57;;
54865;SDS011;40754;52.094;4.328;2022-10-23T00:39:31;20.60;;;10.07;;
54865;SDS011;40754;52.094;4.328;2022-10-23T00:41:56;22.52;;;10.40;;
54865;SDS011;40754;52.094;4.328;2022-10-23T00:46:50;14.93;;;9.90;;
54865;SDS011;40754;52.094;4.328;2022-10-23T00:49:16;23.15;;;10.80;;
54865;SDS011;40754;52.094;4.328;2022-10-23T00:51:52;23.02;;;10.27;;
54865;SDS011;40754;52.094;4.328;2022-10-23T00:54:21;23.73;;;10.88;;
54865;SDS011;40754;52.094;4.328;2022-10-23T00:56:49;26.25;;;11.68;;
54865;SDS011;40754;52.094;4.328;2022-10-23T00:59:15;23.00;;;10.85;;
54865;SDS011;40754;52.094;4.328;2022-10-23T01:01:41;25.20;;;10.65;;
54865;SDS011;40754;52.094;4.328;2022-10-23T01:04:06;28.85;;;11.55;;
54865;SDS011;40754;52.094;4.328;2022-10-23T01:14:14;22.95;;;11.18;;
54865;SDS011;40754;52.094;4.328;2022-10-23T01:19:24;18.05;;;11.73;;
54865;SDS011;40754;52.094;4.328;2022-10-23T01:21:54;23.98;;;11.55;;
54865;SDS011;40754;52.094;4.328;2022-10-23T01:32:26;22.63;;;11.57;;
54865;SDS011;40754;52.094;4.328;2022-10-23T01:35:04;17.55;;;11.25;;
54865;SDS011;40754;52.094;4.328;2022-10-23T01:38:15;25.02;;;10.98;;
54865;SDS011;40754;52.094;4.328;2022-10-23T01:40:33;20.48;;;11.32;;
54865;SDS011;40754;52.094;4.328;2022-10-23T01:43:15;19.77;;;11.15;;
54865;SDS011;40754;52.094;4.328;2022-10-23T01:45:45;18.42;;;11.48;;
54865;SDS011;40754;52.094;4.328;2022-10-23T01:48:15;22.05;;;12.45;;
54865;SDS011;40754;52.094;4.328;2022-10-23T01:50:43;26.15;;;11.60;;
54865;SDS011;40754;52.094;4.328;2022-10-23T01:53:10;23.00;;;11.93;;
54865;SDS011;40754;52.094;4.328;2022-10-23T01:55:36;26.05;;;11.85;;
54865;SDS011;40754;52.094;4.328;2022-10-23T01:58:03;26.40;;;11.30;;
54865;SDS011;40754;52.094;4.328;2022-10-23T02:00:31;22.67;;;11.50;;
54865;SDS011;40754;52.094;4.328;2022-10-23T02:02:57;23.52;;;11.25;;
54865;SDS011;40754;52.094;4.328;2022-10-23T02:05:24;25.73;;;11.48;;
54865;SDS011;40754;52.094;4.328;2022-10-23T02:07:52;24.90;;;12.48;;
54865;SDS011;40754;52.094;4.328;2022-10-23T02:10:19;25.73;;;12.02;;
54865;SDS011;40754;52.094;4.328;2022-10-23T02:12:47;24.55;;;11.82;;
54865;SDS011;40754;52.094;4.328;2022-10-23T02:15:36;26.58;;;11.73;;
54865;SDS011;40754;52.094;4.328;2022-10-23T02:24:06;21.75;;;11.45;;
54865;SDS011;40754;52.094;4.328;2022-10-23T02:26:39;25.95;;;11.82;;
54865;SDS011;40754;52.094;4.328;2022-10-23T02:29:17;25.00;;;12.45;;
54865;SDS011;40754;52.094;4.328;2022-10-23T02:31:45;27.75;;;12.20;;
54865;SDS011;40754;52.094;4.328;2022-10-23T02:34:11;27.80;;;12.50;;
54865;SDS011;40754;52.094;4.328;2022-10-23T02:36:36;28.85;;;12.75;;
54865;SDS011;40754;52.094;4.328;2022-10-23T02:39:03;30.92;;;13.40;;
54865;SDS011;40754;52.094;4.328;2022-10-23T02:44:09;22.88;;;11.07;;
54865;SDS011;40754;52.094;4.328;2022-10-23T02:50:20;22.27;;;12.15;;
54865;SDS011;40754;52.094;4.328;2022-10-23T02:52:40;25.73;;;12.80;;
54865;SDS011;40754;52.094;4.328;2022-10-23T02:55:18;28.42;;;12.43;;
54865;SDS011;40754;52.094;4.328;2022-10-23T02:57:57;25.10;;;12.55;;
54865;SDS011;40754;52.094;4.328;2022-10-23T03:00:28;23.92;;;12.98;;
54865;SDS011;40754;52.094;4.328;2022-10-23T03:02:59;23.17;;;11.90;;
54865;SDS011;40754;52.094;4.328;2022-10-23T03:05:32;27.20;;;12.60;;
54865;SDS011;40754;52.094;4.328;2022-10-23T03:08:01;24.52;;;12.05;;
54865;SDS011;40754;52.094;4.328;2022-10-23T03:10:32;24.17;;;13.15;;
54865;SDS011;40754;52.094;4.328;2022-10-23T03:12:57;23.23;;;12.48;;
54865;SDS011;40754;52.094;4.328;2022-10-23T03:15:23;29.13;;;12.68;;
54865;SDS011;40754;52.094;4.328;2022-10-23T03:17:48;23.90;;;11.85;;
54865;SDS011;40754;52.094;4.328;2022-10-23T03:20:15;24.88;;;12.43;;
54865;SDS011;40754;52.094;4.328;2022-10-23T03:22:41;26.98;;;13.75;;
54865;SDS011;40754;52.094;4.328;2022-10-23T03:25:07;21.63;;;12.65;;
54865;SDS011;40754;52.094;4.328;2022-10-23T03:27:33;20.17;;;11.70;;
54865;SDS011;40754;52.094;4.328;2022-10-23T03:29:58;27.33;;;12.45;;
54865;SDS011;40754;52.094;4.328;2022-10-23T03:32:24;23.52;;;12.05;;
54865;SDS011;40754;52.094;4.328;2022-10-23T03:34:49;26.88;;;12.57;;
54865;SDS011;40754;52.094;4.328;2022-10-23T03:37:15;21.33;;;12.00;;
54865;SDS011;40754;52.094;4.328;2022-10-23T03:39:40;19.30;;;12.25;;
54865;SDS011;40754;52.094;4.328;2022-10-23T03:42:05;25.10;;;12.40;;
54865;SDS011;40754;52.094;4.328;2022-10-23T03:44:31;25.20;;;12.70;;
54865;SDS011;40754;52.094;4.328;2022-10-23T03:46:58;23.92;;;12.77;;
54865;SDS011;40754;52.094;4.328;2022-10-23T03:49:24;22.75;;;11.70;;
54865;SDS011;40754;52.094;4.328;2022-10-23T03:51:49;27.13;;;12.25;;
54865;SDS011;40754;52.094;4.328;2022-10-23T03:54:24;23.38;;;12.93;;
54865;SDS011;40754;52.094;4.328;2022-10-23T03:56:51;25.13;;;12.27;;
54865;SDS011;40754;52.094;4.328;2022-10-23T03:59:17;21.30;;;12.30;;
54865;SDS011;40754;52.094;4.328;2022-10-23T04:01:42;20.92;;;12.05;;
54865;SDS011;40754;52.094;4.328;2022-10-23T04:04:08;25.73;;;12.57;;
54865;SDS011;40754;52.094;4.328;2022-10-23T04:06:33;23.67;;;12.20;;
54865;SDS011;40754;52.094;4.328;2022-10-23T04:08:59;22.90;;;12.52;;
54865;SDS011;40754;52.094;4.328;2022-10-23T04:11:25;24.27;;;12.90;;
54865;SDS011;40754;52.094;4.328;2022-10-23T04:13:50;18.35;;;12.10;;
54865;SDS011;40754;52.094;4.328;2022-10-23T04:16:16;23.83;;;12.43;;
54865;SDS011;40754;52.094;4.328;2022-10-23T04:18:42;19.90;;;11.80;;
54865;SDS011;40754;52.094;4.328;2022-10-23T04:21:08;25.58;;;11.95;;
54865;SDS011;40754;52.094;4.328;2022-10-23T04:23:34;23.27;;;11.70;;
54865;SDS011;40754;52.094;4.328;2022-10-23T04:25:59;24.40;;;12.07;;
54865;SDS011;40754;52.094;4.328;2022-10-23T04:28:25;17.75;;;11.90;;
54865;SDS011;40754;52.094;4.328;2022-10-23T04:30:51;19.25;;;11.43;;
54865;SDS011;40754;52.094;4.328;2022-10-23T04:33:16;25.58;;;12.07;;
54865;SDS011;40754;52.094;4.328;2022-10-23T04:35:45;19.23;;;11.93;;
54865;SDS011;40754;52.094;4.328;2022-10-23T04:38:10;26.30;;;10.52;;
54865;SDS011;40754;52.094;4.328;2022-10-23T04:40:36;20.05;;;10.57;;
54865;SDS011;40754;52.094;4.328;2022-10-23T04:43:02;21.92;;;10.48;;
54865;SDS011;40754;52.094;4.328;2022-10-23T04:45:29;23.15;;;10.80;;
54865;SDS011;40754;52.094;4.328;2022-10-23T04:47:54;19.27;;;10.50;;
54865;SDS011;40754;52.094;4.328;2022-10-23T04:50:20;22.35;;;10.38;;
54865;SDS011;40754;52.094;4.328;2022-10-23T04:52:47;20.75;;;10.38;;
54865;SDS011;40754;52.094;4.328;2022-10-23T04:55:13;21.80;;;9.77;;
54865;SDS011;40754;52.094;4.328;2022-10-23T04:57:38;17.33;;;9.35;;
54865;SDS011;40754;52.094;4.328;2022-10-23T05:00:04;24.17;;;9.90;;
54865;SDS011;40754;52.094;4.328;2022-10-23T05:02:32;16.27;;;9.30;;
54865;SDS011;40754;52.094;4.328;2022-10-23T05:04:57;14.65;;;8.88;;
54865;SDS011;40754;52.094;4.328;2022-10-23T05:07:22;20.73;;;9.35;;
54865;SDS011;40754;52.094;4.328;2022-10-23T05:09:48;22.40;;;10.02;;
54865;SDS011;40754;52.094;4.328;2022-10-23T05:12:14;21.10;;;9.05;;
54865;SDS011;40754;52.094;4.328;2022-10-23T05:14:39;19.65;;;8.63;;
54865;SDS011;40754;52.094;4.328;2022-10-23T05:19:58;20.85;;;8.68;;
54865;SDS011;40754;52.094;4.328;2022-10-23T05:22:26;16.17;;;8.52;;
54865;SDS011;40754;52.094;4.328;2022-10-23T05:24:54;15.55;;;7.78;;
54865;SDS011;40754;52.094;4.328;2022-10-23T05:27:19;14.43;;;8.35;;
54865;SDS011;40754;52.094;4.328;2022-10-23T05:29:45;20.63;;;8.43;;
54865;SDS011;40754;52.094;4.328;2022-10-23T05:32:11;19.98;;;8.27;;
54865;SDS011;40754;52.094;4.328;2022-10-23T05:34:37;20.10;;;8.25;;
54865;SDS011;40754;52.094;4.328;2022-10-23T05:37:05;15.95;;;7.85;;
54865;SDS011;40754;52.094;4.328;2022-10-23T05:39:32;16.67;;;7.65;;
54865;SDS011;40754;52.094;4.328;2022-10-23T05:41:58;13.93;;;7.28;;
54865;SDS011;40754;52.094;4.328;2022-10-23T05:44:24;15.18;;;7.45;;
54865;SDS011;40754;52.094;4.328;2022-10-23T05:46:49;17.58;;;7.90;;
54865;SDS011;40754;52.094;4.328;2022-10-23T05:49:15;18.10;;;7.60;;
54865;SDS011;40754;52.094;4.328;2022-10-23T05:51:40;14.82;;;7.90;;
54865;SDS011;40754;52.094;4.328;2022-10-23T05:54:06;17.55;;;7.75;;
54865;SDS011;40754;52.094;4.328;2022-10-23T05:56:36;17.02;;;7.80;;
54865;SDS011;40754;52.094;4.328;2022-10-23T05:59:03;15.43;;;7.60;;
54865;SDS011;40754;52.094;4.328;2022-10-23T06:01:29;15.02;;;7.78;;
54865;SDS011;40754;52.094;4.328;2022-10-23T06:03:54;15.85;;;8.15;;
54865;SDS011;40754;52.094;4.328;2022-10-23T06:06:20;11.52;;;7.60;;
54865;SDS011;40754;52.094;4.328;2022-10-23T06:08:45;16.90;;;7.57;;
54865;SDS011;40754;52.094;4.328;2022-10-23T06:11:17;16.17;;;7.60;;
54865;SDS011;40754;52.094;4.328;2022-10-23T06:13:43;14.40;;;8.35;;
54865;SDS011;40754;52.094;4.328;2022-10-23T06:16:14;17.08;;;7.97;;
54865;SDS011;40754;52.094;4.328;2022-10-23T06:18:40;21.58;;;8.15;;
54865;SDS011;40754;52.094;4.328;2022-10-23T06:21:07;18.10;;;8.13;;
54865;SDS011;40754;52.094;4.328;2022-10-23T06:23:34;20.48;;;7.97;;
54865;SDS011;40754;52.094;4.328;2022-10-23T06:26:00;18.65;;;7.55;;
54865;SDS011;40754;52.094;4.328;2022-10-23T06:28:26;20.17;;;8.23;;
54865;SDS011;40754;52.094;4.328;2022-10-23T06:30:51;21.30;;;7.25;;
54865;SDS011;40754;52.094;4.328;2022-10-23T06:33:17;18.67;;;7.55;;
54865;SDS011;40754;52.094;4.328;2022-10-23T06:35:42;16.35;;;7.30;;
54865;SDS011;40754;52.094;4.328;2022-10-23T06:38:08;14.32;;;7.35;;
54865;SDS011;40754;52.094;4.328;2022-10-23T06:40:35;15.30;;;7.90;;
54865;SDS011;40754;52.094;4.328;2022-10-23T06:43:01;21.27;;;7.88;;
54865;SDS011;40754;52.094;4.328;2022-10-23T06:45:27;13.82;;;7.00;;
54865;SDS011;40754;52.094;4.328;2022-10-23T06:47:58;15.02;;;7.65;;
54865;SDS011;40754;52.094;4.328;2022-10-23T06:50:23;16.85;;;8.07;;
54865;SDS011;40754;52.094;4.328;2022-10-23T06:52:50;12.38;;;7.43;;
54865;SDS011;40754;52.094;4.328;2022-10-23T06:55:16;13.48;;;7.32;;
54865;SDS011;40754;52.094;4.328;2022-10-23T06:57:45;16.77;;;7.80;;
54865;SDS011;40754;52.094;4.328;2022-10-23T07:00:10;20.58;;;7.93;;
54865;SDS011;40754;52.094;4.328;2022-10-23T07:02:36;18.98;;;7.90;;
54865;SDS011;40754;52.094;4.328;2022-10-23T07:05:02;14.10;;;7.70;;
54865;SDS011;40754;52.094;4.328;2022-10-23T07:07:28;16.80;;;7.70;;
54865;SDS011;40754;52.094;4.328;2022-10-23T07:09:54;15.00;;;8.50;;
54865;SDS011;40754;52.094;4.328;2022-10-23T07:12:19;17.55;;;8.05;;
54865;SDS011;40754;52.094;4.328;2022-10-23T07:14:46;16.83;;;7.50;;
54865;SDS011;40754;52.094;4.328;2022-10-23T07:17:15;12.23;;;7.43;;
54865;SDS011;40754;52.094;4.328;2022-10-23T07:19:40;22.85;;;8.07;;
54865;SDS011;40754;52.094;4.328;2022-10-23T07:22:06;17.05;;;8.02;;
54865;SDS011;40754;52.094;4.328;2022-10-23T07:24:31;17.70;;;8.32;;
54865;SDS011;40754;52.094;4.328;2022-10-23T07:27:01;15.35;;;7.68;;
54865;SDS011;40754;52.094;4.328;2022-10-23T07:29:30;15.98;;;7.95;;
54865;SDS011;40754;52.094;4.328;2022-10-23T07:31:55;19.73;;;8.82;;
54865;SDS011;40754;52.094;4.328;2022-10-23T07:34:22;20.50;;;8.30;;
54865;SDS011;40754;52.094;4.328;2022-10-23T07:36:48;16.45;;;7.70;;
54865;SDS011;40754;52.094;4.328;2022-10-23T07:39:13;16.50;;;8.15;;
54865;SDS011;40754;52.094;4.328;2022-10-23T07:41:39;16.33;;;7.88;;
54865;SDS011;40754;52.094;4.328;2022-10-23T07:44:05;20.60;;;8.63;;
54865;SDS011;40754;52.094;4.328;2022-10-23T07:46:30;16.23;;;8.48;;
54865;SDS011;40754;52.094;4.328;2022-10-23T07:48:56;16.65;;;7.78;;
54865;SDS011;40754;52.094;4.328;2022-10-23T07:51:21;17.98;;;8.27;;
54865;SDS011;40754;52.094;4.328;2022-10-23T07:53:47;14.32;;;8.50;;
54865;SDS011;40754;52.094;4.328;2022-10-23T07:56:20;16.40;;;7.88;;
54865;SDS011;40754;52.094;4.328;2022-10-23T07:58:49;16.13;;;8.75;;
54865;SDS011;40754;52.094;4.328;2022-10-23T08:01:26;17.58;;;8.63;;
54865;SDS011;40754;52.094;4.328;2022-10-23T08:04:01;15.75;;;8.98;;
54865;SDS011;40754;52.094;4.328;2022-10-23T08:06:26;17.40;;;8.70;;
54865;SDS011;40754;52.094;4.328;2022-10-23T08:08:52;13.45;;;8.45;;
54865;SDS011;40754;52.094;4.328;2022-10-23T08:11:19;14.07;;;7.60;;
54865;SDS011;40754;52.094;4.328;2022-10-23T08:13:51;17.77;;;8.40;;
54865;SDS011;40754;52.094;4.328;2022-10-23T08:16:17;20.02;;;8.55;;
54865;SDS011;40754;52.094;4.328;2022-10-23T08:18:42;16.30;;;8.65;;
54865;SDS011;40754;52.094;4.328;2022-10-23T08:21:09;13.25;;;8.40;;
54865;SDS011;40754;52.094;4.328;2022-10-23T08:23:35;16.95;;;8.32;;
54865;SDS011;40754;52.094;4.328;2022-10-23T08:26:02;16.55;;;8.75;;
54865;SDS011;40754;52.094;4.328;2022-10-23T08:28:29;16.67;;;8.15;;
54865;SDS011;40754;52.094;4.328;2022-10-23T08:30:55;17.55;;;8.48;;
54865;SDS011;40754;52.094;4.328;2022-10-23T08:33:21;21.45;;;8.45;;
54865;SDS011;40754;52.094;4.328;2022-10-23T08:35:46;15.20;;;8.13;;
54865;SDS011;40754;52.094;4.328;2022-10-23T08:38:12;12.85;;;7.78;;
54865;SDS011;40754;52.094;4.328;2022-10-23T08:40:38;15.45;;;7.85;;
54865;SDS011;40754;52.094;4.328;2022-10-23T08:51:10;13.45;;;7.72;;
54865;SDS011;40754;52.094;4.328;2022-10-23T08:53:49;11.68;;;7.38;;
54865;SDS011;40754;52.094;4.328;2022-10-23T08:56:24;23.33;;;8.65;;
54865;SDS011;40754;52.094;4.328;2022-10-23T08:59:08;15.10;;;8.32;;
54865;SDS011;40754;52.094;4.328;2022-10-23T09:04:54;15.10;;;7.68;;
54865;SDS011;40754;52.094;4.328;2022-10-23T09:07:39;12.98;;;7.70;;
54865;SDS011;40754;52.094;4.328;2022-10-23T09:12:49;12.27;;;7.28;;
54865;SDS011;40754;52.094;4.328;2022-10-23T09:18:08;10.88;;;7.07;;
54865;SDS011;40754;52.094;4.328;2022-10-23T09:20:38;16.55;;;7.25;;
54865;SDS011;40754;52.094;4.328;2022-10-23T09:23:14;18.20;;;7.53;;
54865;SDS011;40754;52.094;4.328;2022-10-23T09:25:43;18.50;;;7.72;;
54865;SDS011;40754;52.094;4.328;2022-10-23T09:28:33;14.35;;;8.45;;
54865;SDS011;40754;52.094;4.328;2022-10-23T09:31:06;10.25;;;6.82;;
54865;SDS011;40754;52.094;4.328;2022-10-23T09:33:34;11.00;;;7.00;;
54865;SDS011;40754;52.094;4.328;2022-10-23T09:38:32;9.05;;;7.28;;
54865;SDS011;40754;52.094;4.328;2022-10-23T09:43:37;16.73;;;7.95;;
54865;SDS011;40754;52.094;4.328;2022-10-23T09:46:05;14.20;;;6.93;;
54865;SDS011;40754;52.094;4.328;2022-10-23T09:48:32;10.82;;;7.22;;
54865;SDS011;40754;52.094;4.328;2022-10-23T09:50:59;18.42;;;6.70;;
54865;SDS011;40754;52.094;4.328;2022-10-23T09:53:32;10.48;;;6.70;;
54865;SDS011;40754;52.094;4.328;2022-10-23T09:56:00;14.18;;;6.72;;
54865;SDS011;40754;52.094;4.328;2022-10-23T09:58:29;15.73;;;7.47;;
54865;SDS011;40754;52.094;4.328;2022-10-23T10:00:59;15.02;;;7.72;;
54865;SDS011;40754;52.094;4.328;2022-10-23T10:03:25;21.85;;;7.85;;
54865;SDS011;40754;52.094;4.328;2022-10-23T10:06:01;12.88;;;7.00;;
54865;SDS011;40754;52.094;4.328;2022-10-23T10:11:04;12.48;;;6.70;;
54865;SDS011;40754;52.094;4.328;2022-10-23T10:16:09;23.55;;;7.57;;
54865;SDS011;40754;52.094;4.328;2022-10-23T10:18:49;16.17;;;7.57;;
54865;SDS011;40754;52.094;4.328;2022-10-23T10:24:07;13.52;;;7.50;;
54865;SDS011;40754;52.094;4.328;2022-10-23T10:29:49;14.63;;;7.38;;
54865;SDS011;40754;52.094;4.328;2022-10-23T10:32:25;14.55;;;7.78;;
54865;SDS011;40754;52.094;4.328;2022-10-23T10:48:50;8.55;;;6.30;;
54865;SDS011;40754;52.094;4.328;2022-10-23T10:53:57;14.23;;;6.82;;
54865;SDS011;40754;52.094;4.328;2022-10-23T10:56:25;10.00;;;6.20;;
54865;SDS011;40754;52.094;4.328;2022-10-23T10:58:54;27.67;;;6.53;;
54865;SDS011;40754;52.094;4.328;2022-10-23T11:01:34;9.40;;;5.63;;
54865;SDS011;40754;52.094;4.328;2022-10-23T11:06:50;10.75;;;5.70;;
54865;SDS011;40754;52.094;4.328;2022-10-23T11:09:25;9.65;;;5.50;;
54865;SDS011;40754;52.094;4.328;2022-10-23T11:11:52;9.98;;;5.82;;
54865;SDS011;40754;52.094;4.328;2022-10-23T11:14:20;11.65;;;5.82;;
54865;SDS011;40754;52.094;4.328;2022-10-23T11:16:50;16.50;;;5.78;;
54865;SDS011;40754;52.094;4.328;2022-10-23T11:19:34;23.80;;;5.80;;
54865;SDS011;40754;52.094;4.328;2022-10-23T11:22:08;12.43;;;5.35;;
54865;SDS011;40754;52.094;4.328;2022-10-23T11:24:49;10.25;;;5.40;;
54865;SDS011;40754;52.094;4.328;2022-10-23T11:27:39;15.85;;;5.70;;
54865;SDS011;40754;52.094;4.328;2022-10-23T11:30:30;14.57;;;5.72;;
54865;SDS011;40754;52.094;4.328;2022-10-23T11:34:04;9.90;;;5.32;;
54865;SDS011;40754;52.094;4.328;2022-10-23T11:47:24;10.48;;;5.45;;
54865;SDS011;40754;52.094;4.328;2022-10-23T11:52:31;10.18;;;5.25;;
54865;SDS011;40754;52.094;4.328;2022-10-23T11:55:01;10.07;;;4.70;;
54865;SDS011;40754;52.094;4.328;2022-10-23T11:57:27;10.32;;;4.88;;
54865;SDS011;40754;52.094;4.328;2022-10-23T11:59:56;10.82;;;4.57;;
54865;SDS011;40754;52.094;4.328;2022-10-23T12:02:31;7.18;;;4.57;;
54865;SDS011;40754;52.094;4.328;2022-10-23T12:05:08;10.30;;;4.68;;
54865;SDS011;40754;52.094;4.328;2022-10-23T12:07:53;8.77;;;4.15;;
54865;SDS011;40754;52.094;4.328;2022-10-23T12:10:42;7.78;;;4.13;;
54865;SDS011;40754;52.094;4.328;2022-10-23T12:16:02;7.82;;;4.47;;
54865;SDS011;40754;52.094;4.328;2022-10-23T12:18:28;8.30;;;4.32;;
54865;SDS011;40754;52.094;4.328;2022-10-23T12:21:00;8.85;;;4.13;;
54865;SDS011;40754;52.094;4.328;2022-10-23T12:29:27;9.25;;;3.80;;
54865;SDS011;40754;52.094;4.328;2022-10-23T12:37:49;8.10;;;3.60;;
54865;SDS011;40754;52.094;4.328;2022-10-23T12:40:24;6.85;;;3.63;;
54865;SDS011;40754;52.094;4.328;2022-10-23T12:42:54;6.90;;;3.58;;
54865;SDS011;40754;52.094;4.328;2022-10-23T12:45:22;13.75;;;3.97;;
54865;SDS011;40754;52.094;4.328;2022-10-23T12:47:48;6.22;;;3.28;;
54865;SDS011;40754;52.094;4.328;2022-10-23T12:50:15;10.73;;;3.25;;
54865;SDS011;40754;52.094;4.328;2022-10-23T12:53:16;6.28;;;3.55;;
54865;SDS011;40754;52.094;4.328;2022-10-23T12:55:50;7.13;;;3.42;;
54865;SDS011;40754;52.094;4.328;2022-10-23T13:00:54;8.23;;;3.40;;
54865;SDS011;40754;52.094;4.328;2022-10-23T13:03:22;7.25;;;3.55;;
54865;SDS011;40754;52.094;4.328;2022-10-23T13:05:49;6.57;;;3.63;;
54865;SDS011;40754;52.094;4.328;2022-10-23T13:08:16;8.43;;;3.38;;
54865;SDS011;40754;52.094;4.328;2022-10-23T13:10:43;10.30;;;3.80;;
54865;SDS011;40754;52.094;4.328;2022-10-23T13:13:09;6.72;;;3.10;;
54865;SDS011;40754;52.094;4.328;2022-10-23T13:15:38;10.82;;;3.30;;
54865;SDS011;40754;52.094;4.328;2022-10-23T13:18:08;7.70;;;3.20;;
54865;SDS011;40754;52.094;4.328;2022-10-23T13:20:41;7.13;;;3.67;;
54865;SDS011;40754;52.094;4.328;2022-10-23T13:23:28;11.65;;;3.85;;
54865;SDS011;40754;52.094;4.328;2022-10-23T13:25:57;12.88;;;4.35;;
54865;SDS011;40754;52.094;4.328;2022-10-23T13:28:32;10.57;;;3.70;;
54865;SDS011;40754;52.094;4.328;2022-10-23T13:33:40;8.15;;;3.65;;
54865;SDS011;40754;52.094;4.328;2022-10-23T13:38:39;8.68;;;3.58;;
54865;SDS011;40754;52.094;4.328;2022-10-23T13:41:28;9.23;;;3.53;;
54865;SDS011;40754;52.094;4.328;2022-10-23T13:44:01;8.07;;;3.22;;
54865;SDS011;40754;52.094;4.328;2022-10-23T13:46:26;7.68;;;3.30;;
54865;SDS011;40754;52.094;4.328;2022-10-23T13:48:53;7.35;;;3.63;;
54865;SDS011;40754;52.094;4.328;2022-10-23T13:53:51;7.95;;;3.25;;
54865;SDS011;40754;52.094;4.328;2022-10-23T13:56:17;4.05;;;3.10;;
54865;SDS011;40754;52.094;4.328;2022-10-23T13:58:47;10.52;;;3.47;;
54865;SDS011;40754;52.094;4.328;2022-10-23T14:01:34;6.88;;;3.47;;
54865;SDS011;40754;52.094;4.328;2022-10-23T14:03:59;8.95;;;3.38;;
54865;SDS011;40754;52.094;4.328;2022-10-23T14:06:26;10.75;;;3.75;;
54865;SDS011;40754;52.094;4.328;2022-10-23T14:08:51;7.95;;;3.08;;
54865;SDS011;40754;52.094;4.328;2022-10-23T14:11:18;7.10;;;3.40;;
54865;SDS011;40754;52.094;4.328;2022-10-23T14:13:44;11.55;;;3.42;;
54865;SDS011;40754;52.094;4.328;2022-10-23T14:16:14;8.57;;;3.00;;
54865;SDS011;40754;52.094;4.328;2022-10-23T14:18:41;9.38;;;3.08;;
54865;SDS011;40754;52.094;4.328;2022-10-23T14:21:07;10.52;;;2.90;;
54865;SDS011;40754;52.094;4.328;2022-10-23T14:23:35;8.15;;;3.08;;
54865;SDS011;40754;52.094;4.328;2022-10-23T14:26:11;8.98;;;2.70;;
54865;SDS011;40754;52.094;4.328;2022-10-23T14:28:37;5.63;;;2.85;;
54865;SDS011;40754;52.094;4.328;2022-10-23T14:31:07;5.80;;;2.63;;
54865;SDS011;40754;52.094;4.328;2022-10-23T14:33:35;4.43;;;2.78;;
54865;SDS011;40754;52.094;4.328;2022-10-23T14:36:00;8.90;;;2.65;;
54865;SDS011;40754;52.094;4.328;2022-10-23T14:38:26;8.93;;;2.70;;
54865;SDS011;40754;52.094;4.328;2022-10-23T14:40:51;8.30;;;2.70;;
54865;SDS011;40754;52.094;4.328;2022-10-23T14:43:17;7.22;;;2.83;;
54865;SDS011;40754;52.094;4.328;2022-10-23T14:45:42;7.53;;;2.80;;
54865;SDS011;40754;52.094;4.328;2022-10-23T14:48:08;8.43;;;2.70;;
54865;SDS011;40754;52.094;4.328;2022-10-23T14:50:34;10.77;;;2.95;;
54865;SDS011;40754;52.094;4.328;2022-10-23T14:53:01;7.43;;;2.70;;
54865;SDS011;40754;52.094;4.328;2022-10-23T14:55:27;8.57;;;3.42;;
54865;SDS011;40754;52.094;4.328;2022-10-23T14:57:53;6.75;;;2.72;;
54865;SDS011;40754;52.094;4.328;2022-10-23T15:00:23;6.32;;;2.70;;
54865;SDS011;40754;52.094;4.328;2022-10-23T15:02:48;12.82;;;3.47;;
54865;SDS011;40754;52.094;4.328;2022-10-23T15:05:14;9.00;;;3.17;;
54865;SDS011;40754;52.094;4.328;2022-10-23T15:07:40;7.68;;;2.78;;
54865;SDS011;40754;52.094;4.328;2022-10-23T15:10:05;8.75;;;3.17;;
54865;SDS011;40754;52.094;4.328;2022-10-23T15:12:33;9.18;;;2.97;;
54865;SDS011;40754;52.094;4.328;2022-10-23T15:14:59;5.78;;;3.42;;
54865;SDS011;40754;52.094;4.328;2022-10-23T15:17:25;11.73;;;3.70;;
54865;SDS011;40754;52.094;4.328;2022-10-23T15:19:50;12.65;;;5.90;;
54865;SDS011;40754;52.094;4.328;2022-10-23T15:22:16;11.63;;;7.50;;
54865;SDS011;40754;52.094;4.328;2022-10-23T15:24:43;18.75;;;7.60;;
54865;SDS011;40754;52.094;4.328;2022-10-23T15:27:09;16.52;;;8.15;;
54865;SDS011;40754;52.094;4.328;2022-10-23T15:29:35;11.45;;;6.78;;
54865;SDS011;40754;52.094;4.328;2022-10-23T15:32:00;16.73;;;9.85;;
54865;SDS011;40754;52.094;4.328;2022-10-23T15:34:27;16.63;;;10.35;;
54865;SDS011;40754;52.094;4.328;2022-10-23T15:36:54;14.85;;;7.63;;
54865;SDS011;40754;52.094;4.328;2022-10-23T15:39:21;11.85;;;7.25;;
54865;SDS011;40754;52.094;4.328;2022-10-23T15:41:49;18.20;;;7.60;;
54865;SDS011;40754;52.094;4.328;2022-10-23T15:44:16;10.65;;;5.45;;
54865;SDS011;40754;52.094;4.328;2022-10-23T15:46:42;12.50;;;5.22;;
54865;SDS011;40754;52.094;4.328;2022-10-23T15:49:08;9.18;;;4.25;;
54865;SDS011;40754;52.094;4.328;2022-10-23T15:51:34;11.35;;;3.80;;
54865;SDS011;40754;52.094;4.328;2022-10-23T15:54:01;12.00;;;5.20;;
54865;SDS011;40754;52.094;4.328;2022-10-23T15:56:27;13.75;;;4.65;;
54865;SDS011;40754;52.094;4.328;2022-10-23T15:58:52;12.30;;;5.57;;
54865;SDS011;40754;52.094;4.328;2022-10-23T16:01:18;7.28;;;4.07;;
54865;SDS011;40754;52.094;4.328;2022-10-23T16:03:43;11.95;;;5.65;;
54865;SDS011;40754;52.094;4.328;2022-10-23T16:06:10;16.58;;;5.47;;
54865;SDS011;40754;52.094;4.328;2022-10-23T16:08:38;12.13;;;4.28;;
54865;SDS011;40754;52.094;4.328;2022-10-23T16:11:04;6.57;;;4.50;;
54865;SDS011;40754;52.094;4.328;2022-10-23T16:13:40;10.15;;;4.55;;
54865;SDS011;40754;52.094;4.328;2022-10-23T16:16:07;10.70;;;4.00;;
54865;SDS011;40754;52.094;4.328;2022-10-23T16:18:33;6.35;;;4.18;;
54865;SDS011;40754;52.094;4.328;2022-10-23T16:20:58;8.48;;;4.05;;
54865;SDS011;40754;52.094;4.328;2022-10-23T16:23:24;16.63;;;4.68;;
54865;SDS011;40754;52.094;4.328;2022-10-23T16:25:52;12.68;;;5.22;;
54865;SDS011;40754;52.094;4.328;2022-10-23T16:28:18;8.00;;;5.25;;
54865;SDS011;40754;52.094;4.328;2022-10-23T16:30:46;10.57;;;5.75;;
54865;SDS011;40754;52.094;4.328;2022-10-23T16:33:15;11.25;;;5.30;;
54865;SDS011;40754;52.094;4.328;2022-10-23T16:35:40;9.70;;;5.93;;
54865;SDS011;40754;52.094;4.328;2022-10-23T16:38:06;10.82;;;6.53;;
54865;SDS011;40754;52.094;4.328;2022-10-23T16:40:31;14.18;;;6.07;;
54865;SDS011;40754;52.094;4.328;2022-10-23T16:42:57;11.88;;;6.60;;
54865;SDS011;40754;52.094;4.328;2022-10-23T16:45:22;13.35;;;6.88;;
54865;SDS011;40754;52.094;4.328;2022-10-23T16:47:48;12.02;;;7.32;;